Flight Track Log - Related Links

Times and Time Zones

All times are in EDT time to prevent confusion due to time zone crossing. See the NCB9032 flight status page for this flight to view local times or setup timezone preferences in your user account.

Time Position Orientation Groundspeed Altitude Reporting Facility
EDT Latitude Longitude Course Direction KTS MPH feet Rate Location/Type
Mon 12:43:14 PM 53.3000 -113.6667 310° West 140 161 4,000  Level Edmonton Center
Mon 12:44:14 PM 53.3333 -113.7333 310° West 170 196 5,000 1,150 Climbing Edmonton Center
Mon 12:45:14 PM 53.3667 -113.8000 310° West 160 184 6,300 1,200 Climbing Edmonton Center
Mon 12:46:14 PM 53.3833 -113.8500 299° West 170 196 7,400 1,100 Climbing Edmonton Center
Mon 12:47:00 PM 53.5196 -114.1179 301° West  Level FlightAware Approximate
Mon 12:47:14 PM 53.4000 -113.9167 293° West 170 196 8,500  Level Edmonton Center
Mon 12:48:14 PM 53.4333 -113.9833 310° West 170 196 9,600 1,150 Climbing Edmonton Center
Mon 12:49:14 PM 53.4667 -114.0833 299° West 180 207 10,800 1,150 Climbing Edmonton Center
Mon 12:50:14 PM 53.5000 -114.1333 318° Northwest 180 207 11,900 1,100 Climbing Edmonton Center
Mon 12:51:14 PM 53.5167 -114.2333 286° West 180 207 13,000 1,050 Climbing Edmonton Center
Mon 12:52:14 PM 53.5500 -114.3000 310° West 190 219 14,000 1,050 Climbing Edmonton Center
Mon 12:53:14 PM 53.5833 -114.3667 310° West 190 219 15,100 1,000 Climbing Edmonton Center
Mon 12:54:14 PM 53.6000 -114.4500 289° West 190 219 16,000 1,000 Climbing Edmonton Center
Mon 12:55:14 PM 53.6333 -114.5167 310° West 180 207 17,100 1,000 Climbing Edmonton Center
Mon 12:56:14 PM 53.6667 -114.5833 310° West 180 207 18,000 850 Climbing Edmonton Center
Mon 12:57:14 PM 53.6833 -114.6667 289° West 190 219 18,800 850 Climbing Edmonton Center
Mon 12:58:14 PM 53.7167 -114.7333 310° West 190 219 19,700 750 Climbing Edmonton Center
Mon 12:59:14 PM 53.7500 -114.8000 310° West 190 219 20,300 750 Climbing Edmonton Center
Mon 01:00:14 PM 53.7667 -114.9000 286° West 180 207 21,200 900 Climbing Edmonton Center
Mon 01:01:14 PM 53.8000 -114.9667 310° West 170 196 22,100 750 Climbing Edmonton Center
Mon 01:02:14 PM 53.8333 -115.0333 310° West 170 196 22,700 550 Climbing Edmonton Center
Mon 01:03:14 PM 53.8500 -115.0833 299° West 170 196 23,200 650 Climbing Edmonton Center
Mon 01:04:14 PM 53.8667 -115.1500 293° West 150 173 24,000 400 Climbing Edmonton Center
Mon 01:05:14 PM 53.9000 -115.2167 310° West 150 173 24,000  Level Edmonton Center
Mon 01:06:14 PM 53.9167 -115.2833 293° West 170 196 24,000  Level Edmonton Center
Mon 01:07:14 PM 53.9500 -115.3500 310° West 180 207 24,000  Level Edmonton Center
Mon 01:08:14 PM 53.9833 -115.4333 304° West 190 219 24,000  Level Edmonton Center
Mon 01:09:14 PM 54.0000 -115.5000 293° West 190 219 24,000  Level Edmonton Center
Mon 01:10:14 PM 54.0333 -115.6000 300° West 200 230 24,000  Level Edmonton Center
Mon 01:11:14 PM 54.0667 -115.6667 310° West 200 230 24,000  Level Edmonton Center
Mon 01:12:14 PM 54.0833 -115.7667 286° West 200 230 24,000  Level Edmonton Center
Mon 01:13:14 PM 54.1167 -115.8333 310° West 200 230 24,000  Level Edmonton Center
Mon 01:14:14 PM 54.1500 -115.9000 311° West 200 230 24,000  Level Edmonton Center
Mon 01:15:14 PM 54.2000 -115.9667 322° Northwest 210 242 24,000  Level Edmonton Center
Mon 01:16:14 PM 54.2500 -116.0333 322° Northwest 210 242 24,000  Level Edmonton Center
Mon 01:17:14 PM 54.2833 -116.1167 304° West 210 242 24,000  Level Edmonton Center
Mon 01:18:14 PM 54.3333 -116.1833 322° Northwest 210 242 24,000  Level Edmonton Center
Mon 01:19:14 PM 54.3833 -116.2500 322° Northwest 220 253 24,000  Level Edmonton Center
Mon 01:20:14 PM 54.4167 -116.3167 311° West 220 253 24,000  Level Edmonton Center
Mon 01:21:14 PM 54.4667 -116.4000 316° Northwest 220 253 24,000  Level Edmonton Center
Mon 01:22:14 PM 54.5000 -116.4667 311° West 220 253 24,000  Level Edmonton Center
Mon 01:23:14 PM 54.5500 -116.5333 322° Northwest 220 253 24,000  Level Edmonton Center
Mon 01:24:14 PM 54.5833 -116.6000 311° West 220 253 24,000  Level Edmonton Center
Mon 01:25:14 PM 54.6500 -116.6833 324° Northwest 220 253 24,000  Level Edmonton Center
Mon 01:26:14 PM 54.6667 -116.7833 286° West 220 253 24,000  Level Edmonton Center
Mon 01:27:14 PM 54.7333 -116.8667 324° Northwest 220 253 24,000  Level Edmonton Center
Mon 01:28:14 PM 54.7667 -116.9333 311° West 220 253 24,000  Level Edmonton Center
Mon 01:29:14 PM 54.8167 -117.0000 322° Northwest 220 253 24,000  Level Edmonton Center
Mon 01:30:14 PM 54.8667 -117.0833 316° Northwest 230 265 24,000  Level Edmonton Center
Mon 01:31:14 PM 54.9000 -117.1500 311° West 230 265 24,000  Level Edmonton Center
Mon 01:32:14 PM 54.9500 -117.2333 316° Northwest 230 265 24,000  Level Edmonton Center
Mon 01:33:14 PM 54.9833 -117.3333 300° West 230 265 24,000  Level Edmonton Center
Mon 01:34:14 PM 55.0500 -117.4000 330° Northwest 230 265 24,000  Level Edmonton Center
Mon 01:35:14 PM 55.1000 -117.4833 316° Northwest 230 265 24,000  Level Edmonton Center
Mon 01:36:14 PM 55.1333 -117.5500 311° West 230 265 24,000  Level Edmonton Center
Mon 01:37:14 PM 55.1833 -117.6333 316° Northwest 230 265 24,000  Level Edmonton Center
Mon 01:38:14 PM 55.2167 -117.7333 300° West 230 265 24,000  Level Edmonton Center
Mon 01:39:14 PM 55.2833 -117.8167 325° Northwest 240 276 24,000  Level Edmonton Center
Mon 01:40:14 PM 55.3333 -117.8833 323° Northwest 240 276 24,000  Level Edmonton Center
Mon 01:41:14 PM 55.3667 -117.9667 305° West 240 276 24,000  Level Edmonton Center
Mon 01:42:14 PM 55.4167 -118.0667 311° West 240 276 24,000  Level Edmonton Center
Mon 01:43:14 PM 55.4667 -118.1500 317° Northwest 240 276 24,000  Level Edmonton Center
Mon 01:44:14 PM 55.5167 -118.2333 317° Northwest 240 276 24,000  Level Edmonton Center
Mon 01:45:14 PM 55.5500 -118.3000 311° West 240 276 24,000  Level Edmonton Center
Mon 01:46:14 PM 55.6000 -118.4000 312° West 240 276 24,000  Level Edmonton Center
Mon 01:47:14 PM 55.6500 -118.4833 317° Northwest 240 276 24,000  Level Edmonton Center
Mon 01:48:14 PM 55.7000 -118.5667 317° Northwest 240 276 24,000  Level Edmonton Center
Mon 01:49:14 PM 55.7500 -118.6833 307° West 250 288 24,000  Level Edmonton Center
Mon 01:50:14 PM 55.8000 -118.7500 323° Northwest 250 288 24,000  Level Edmonton Center
Mon 01:51:14 PM 55.8333 -118.8333 305° West 240 276 24,000  Level Edmonton Center
Mon 01:52:14 PM 55.9000 -118.9500 316° Northwest 250 288 24,000  Level Edmonton Center
Mon 01:53:14 PM 55.9333 -119.0167 312° West 250 288 24,000  Level Edmonton Center
Mon 01:54:14 PM 55.9833 -119.1000 317° Northwest 250 288 24,000  Level Edmonton Center
Mon 01:55:14 PM 56.0333 -119.2167 308° West 250 288 24,000  Level Edmonton Center
Mon 01:56:14 PM 56.0833 -119.3000 317° Northwest 250 288 24,000  Level Edmonton Center
Mon 01:57:14 PM 56.1167 -119.3667 312° West 250 288 24,000  Level Edmonton Center
Mon 01:58:14 PM 56.1667 -119.4833 308° West 250 288 24,000  Level Edmonton Center
Mon 01:59:14 PM 56.2167 -119.5667 317° Northwest 250 288 24,000  Level Edmonton Center
Mon 02:00:14 PM 56.2833 -119.6500 325° Northwest 250 288 24,000  Level Edmonton Center
Mon 02:01:14 PM 56.3167 -119.7667 297° West 250 288 24,000  Level Edmonton Center
Mon 02:02:14 PM 56.3500 -119.8333 312° West 250 288 24,000  Level Edmonton Center
Mon 02:03:14 PM 56.4167 -119.9167 325° Northwest 250 288 24,000  Level Edmonton Center
Mon 02:04:14 PM 56.4500 -120.0333 297° West 250 288 24,000  Level Edmonton Center
Mon 02:05:14 PM 56.5167 -120.1167 325° Northwest 250 288 24,000  Level Edmonton Center
Mon 02:06:14 PM 56.5500 -120.2000 306° West 250 288 24,000  Level Edmonton Center
Mon 02:07:14 PM 56.6000 -120.3167 308° West 250 288 24,000  Level Edmonton Center
Mon 02:08:14 PM 56.6500 -120.4000 318° Northwest 240 276 24,000  Level Edmonton Center
Mon 02:09:14 PM 56.6833 -120.4833 306° West 240 276 24,000  Level Edmonton Center
Mon 02:10:14 PM 56.7500 -120.6000 316° Northwest 250 288 24,000  Level Edmonton Center
Mon 02:11:14 PM 56.7833 -120.6833 306° West 250 288 24,000  Level Edmonton Center
Mon 02:12:14 PM 56.8500 -120.7667 326° Northwest 250 288 24,000  Level Edmonton Center
Mon 02:13:14 PM 56.8833 -120.8833 298° West 250 288 24,000  Level Edmonton Center
Mon 02:15:00 PM 56.9805 -120.9715 334° Northwest  Level FlightAware Approximate
Mon 02:20:14 PM 57.2167 -121.5333 333° Northwest 240 276 24,000  Level Edmonton Center
Mon 02:22:00 PM 57.3649 -121.3256 334° Northwest  Level FlightAware Approximate
Mon 02:22:14 PM 57.2833 -121.7000 307° West 240 276 24,000  Level Edmonton Center
Mon 02:23:00 PM 57.4198 -121.3768 333° Northwest  Level FlightAware Approximate
Mon 02:23:14 PM 57.3500 -121.8333 313° West 240 276 24,000  Level Edmonton Center
Mon 02:24:00 PM 57.4746 -121.4281 333° Northwest  Level FlightAware Approximate
Mon 02:24:14 PM 57.3833 -121.8833 321° Northwest 250 288 24,000  Level Edmonton Center
Mon 02:25:00 PM 57.5294 -121.4796 333° Northwest  Level FlightAware Approximate
Mon 02:25:14 PM 57.4667 -121.9167 348° North 250 288 24,000  Level Edmonton Center
Mon 02:26:14 PM 57.5333 -121.9833 332° Northwest 250 288 24,000  Level Edmonton Center
Mon 02:28:14 PM 57.6667 -122.0500 345° North 250 288 24,000  Level Edmonton Center
Mon 02:30:00 PM 57.7668 -122.1255 338° Northwest  Level FlightAware Approximate
Mon 02:37:00 PM 58.1630 -122.4291 338° Northwest  Level FlightAware Approximate
Mon 02:38:00 PM 58.2196 -122.4730 338° Northwest  Level FlightAware Approximate
Mon 02:39:00 PM 58.2761 -122.5170 338° Northwest  Level FlightAware Approximate
Mon 02:40:00 PM 58.3326 -122.5612 338° Northwest  Level FlightAware Approximate
Mon 02:41:00 PM 58.3891 -122.6055 338° Northwest  Level FlightAware Approximate
Mon 02:42:00 PM 58.4456 -122.6500 338° Northwest  Level FlightAware Approximate
Mon 02:43:00 PM 58.5021 -122.6946 338° Northwest  Level FlightAware Approximate
Mon 02:44:00 PM 58.5585 -122.7394 338° Northwest  Level FlightAware Approximate
Mon 02:45:00 PM 58.6150 -122.7843 337° Northwest  Level FlightAware Approximate
Mon 02:46:00 PM 58.6714 -122.8294 337° Northwest  Level FlightAware Approximate
Mon 02:47:00 PM 58.7278 -122.8745 337° Northwest  Level FlightAware Approximate
Mon 02:48:00 PM 58.7842 -122.9199 337° Northwest  Level FlightAware Approximate
Mon 02:49:00 PM 58.8406 -122.9654 337° Northwest  Level FlightAware Approximate
Mon 02:50:00 PM 58.8820 -122.9715 102° East  Level FlightAware Approximate
Mon 02:51:00 PM 58.8692 -122.8559 102° East  Level FlightAware Approximate
Mon 02:52:00 PM 58.8507 -122.7447 113° Southeast  Level FlightAware Approximate
Mon 02:53:00 PM 58.8333 -122.6335 90° East  Level FlightAware Approximate
Mon 02:54:00 PM 58.8333 -122.5833 90° East  Level FlightAware Approximate

Login

Don't have an account? Register now (free) for customized features, flight alerts, and more!